Queen, North Carolina
Current Conditions -  °F | °C
As of 5:55 PM on Thursday 18 Dec 2014 (Local Time) from KVUJ Reporting Station
Scattered Clouds Scattered Clouds  
Wind Chill: 41°   Ceiling: Unl
Heat Index: 41°   Visibility: 10mi
Dew Point: 32°   Wind: 0mph
Humidity: 70%   Direction: NA
Pressure: 30.13"   Gusts: NA
Location:  35.4086°N, 79.9566°W
Report Text: KVUJ 182255Z AUTO 00000KT 10SM SCT065 05/00 A3013 RMK AO2 T00510000
Loading
Personal Weather Stations






























Interactive Weather Map New forecast layout! Learn more

10-Day Weather Forecast

Advertisements
Track Severe Weather on mobile